createdAt,value
2022-09-17T00:01:45.627Z,100944.16
2022-09-17T00:04:14.026Z,100951.19
2022-09-17T00:06:43.502Z,100931.84
2022-09-17T00:09:12.207Z,100935.34
2022-09-17T00:11:42.807Z,100946.78
2022-09-17T00:14:16.185Z,100942.41
2022-09-17T00:16:47.392Z,100939.75
2022-09-17T00:19:19.510Z,100948.56
2022-09-17T00:21:47.912Z,100945.91
2022-09-17T00:24:17.861Z,100938.84
2022-09-17T00:26:46.626Z,100943.25
2022-09-17T00:29:15.307Z,100944.16
2022-09-17T00:31:44.717Z,100951.19
2022-09-17T00:34:13.325Z,100953.81
2022-09-17T00:36:42.894Z,100960.84
2022-09-17T00:39:12.770Z,100953.81
2022-09-17T00:41:42.718Z,100967.88
2022-09-17T00:44:50.820Z,100962.63
2022-09-17T00:47:31.356Z,100968.78
2022-09-17T00:50:23.274Z,100964.38
2022-09-17T00:53:17.658Z,100967.03
2022-09-17T00:55:49.221Z,100971.41
2022-09-17T00:58:21.043Z,100971.41
2022-09-17T01:00:49.358Z,100961.75
2022-09-17T01:03:18.804Z,100970.53
2022-09-17T01:06:17.321Z,100963.50
2022-09-17T01:09:12.016Z,100967.03
2022-09-17T01:12:01.116Z,100967.00
2022-09-17T01:14:52.687Z,100969.63
2022-09-17T01:17:45.985Z,100964.34
2022-09-17T01:20:39.622Z,100962.59
2022-09-17T01:23:17.348Z,100958.19
2022-09-17T01:25:59.589Z,100968.75
2022-09-17T01:28:34.477Z,100961.72
2022-09-17T01:31:08.682Z,100972.25
2022-09-17T01:33:43.714Z,100978.41
2022-09-17T01:36:26.422Z,100980.19
2022-09-17T01:38:57.246Z,100981.06
2022-09-17T01:41:38.097Z,100978.44
2022-09-17T01:44:25.456Z,100975.78
2022-09-17T01:47:04.906Z,100961.72
2022-09-17T01:49:37.951Z,100963.44
2022-09-17T01:52:10.225Z,100969.59
2022-09-17T01:54:51.245Z,100974.00
2022-09-17T01:57:33.773Z,100969.59
2022-09-17T02:00:18.108Z,100976.66
2022-09-17T02:02:53.810Z,100970.50
2022-09-17T02:05:32.584Z,100981.06
2022-09-17T02:08:08.944Z,100970.50
2022-09-17T02:10:45.317Z,100980.16
2022-09-17T02:13:19.575Z,100973.16
2022-09-17T02:15:57.618Z,100979.28
2022-09-17T02:18:42.072Z,100968.75
2022-09-17T02:21:21.843Z,100975.78
2022-09-17T02:24:04.675Z,100974.91
2022-09-17T02:26:38.655Z,100976.66
2022-09-17T02:29:16.385Z,100972.22
2022-09-17T02:31:44.885Z,100976.63
2022-09-17T02:34:14.985Z,100972.25
2022-09-17T02:36:43.333Z,100976.63
2022-09-17T02:39:11.745Z,100974.00
2022-09-17T02:42:05.448Z,100966.09
2022-09-17T02:45:16.294Z,100976.66
2022-09-17T02:48:03.458Z,100972.25
2022-09-17T02:50:47.167Z,100979.25
2022-09-17T02:53:34.481Z,100980.16
2022-09-17T02:56:47.890Z,100973.13
2022-09-17T02:59:38.889Z,100973.16
2022-09-17T03:02:16.281Z,100981.06
2022-09-17T03:04:47.176Z,100982.81
2022-09-17T03:07:19.498Z,100981.06
2022-09-17T03:09:47.919Z,100982.84
2022-09-17T03:12:16.923Z,100980.19
2022-09-17T03:14:45.821Z,100973.16
2022-09-17T03:17:14.941Z,100970.50
2022-09-17T03:19:43.292Z,100972.25
2022-09-17T03:22:12.753Z,100967.84
2022-09-17T03:24:41.749Z,100967.84
2022-09-17T03:27:10.433Z,100970.50
2022-09-17T03:29:38.765Z,100969.63
2022-09-17T03:32:08.444Z,100967.81
2022-09-17T03:34:36.869Z,100979.28
2022-09-17T03:37:05.224Z,100974.00
2022-09-17T03:39:34.890Z,100976.63
2022-09-17T03:42:03.268Z,100977.50
2022-09-17T03:44:31.587Z,100982.78
2022-09-17T03:47:01.111Z,100978.34
2022-09-17T03:49:31.525Z,100979.25
2022-09-17T03:51:59.867Z,100981.88
2022-09-17T03:54:28.212Z,100985.41
2022-09-17T03:56:57.447Z,100992.44
2022-09-17T03:59:26.233Z,100988.06
2022-09-17T04:01:54.782Z,100983.69
2022-09-17T04:04:23.349Z,100988.06
2022-09-17T04:06:51.708Z,100983.66
2022-09-17T04:09:19.986Z,100992.50
2022-09-17T04:11:48.307Z,100992.47
2022-09-17T04:14:16.570Z,100981.91
2022-09-17T04:16:44.881Z,100988.94
2022-09-17T04:19:13.226Z,100984.53
2022-09-17T04:21:41.539Z,100980.16
2022-09-17T04:24:10.003Z,100995.97
2022-09-17T04:26:38.296Z,101002.09
2022-09-17T04:29:09.219Z,101015.28
2022-09-17T04:31:37.581Z,101044.31
2022-09-17T04:34:06.420Z,101021.41
2022-09-17T04:36:34.852Z,100999.34
2022-09-17T04:39:03.638Z,100998.44
2022-09-17T04:41:32.102Z,100997.47
2022-09-17T04:44:00.536Z,101001.84
2022-09-17T04:46:28.820Z,101000.00
2022-09-17T04:48:57.149Z,101000.88
2022-09-17T04:51:25.647Z,100998.19
2022-09-17T04:53:53.942Z,100998.16
2022-09-17T04:56:22.346Z,101004.25
2022-09-17T04:58:50.972Z,101009.53
2022-09-17T05:01:19.530Z,101047.22
2022-09-17T05:03:48.401Z,101012.00
2022-09-17T05:06:16.818Z,101007.66
2022-09-17T05:08:45.129Z,101010.31
2022-09-17T05:11:13.419Z,101001.50
2022-09-17T05:13:41.844Z,101004.16
2022-09-17T05:16:10.446Z,101001.53
2022-09-17T05:18:39.327Z,101006.81
2022-09-17T05:21:08.817Z,101008.56
2022-09-17T05:23:37.099Z,101012.09
2022-09-17T05:26:05.435Z,101012.06
2022-09-17T05:28:34.364Z,101022.56
2022-09-17T05:31:03.349Z,101015.50
2022-09-17T05:33:32.160Z,101021.66
2022-09-17T05:36:00.605Z,101025.13
2022-09-17T05:38:28.886Z,101024.25
2022-09-17T05:40:57.918Z,101026.91
2022-09-17T05:43:26.917Z,101026.09
2022-09-17T05:45:55.199Z,101025.22
2022-09-17T05:48:23.702Z,101032.25
2022-09-17T05:50:52.060Z,101024.34
2022-09-17T05:53:24.625Z,101019.13
2022-09-17T05:56:00.113Z,101022.66
2022-09-17T05:58:29.470Z,101013.88
2022-09-17T06:01:01.355Z,101013.94
2022-09-17T06:03:29.998Z,101023.66
2022-09-17T06:05:59.925Z,101015.78
2022-09-17T06:08:29.521Z,101008.81
2022-09-17T06:11:02.310Z,101017.63
2022-09-17T06:13:31.224Z,101018.53
2022-09-17T06:16:00.733Z,101016.84
2022-09-17T06:18:30.818Z,101028.34
2022-09-17T06:21:01.497Z,101044.25
2022-09-17T06:23:35.478Z,101030.25
2022-09-17T06:26:05.841Z,101034.69
2022-09-17T06:28:37.843Z,101047.00
2022-09-17T06:31:10.961Z,101039.09
2022-09-17T06:33:39.355Z,101041.75
2022-09-17T06:36:13.971Z,101040.03
2022-09-17T06:38:43.631Z,101043.56
2022-09-17T06:41:12.756Z,101036.53
2022-09-17T06:43:43.134Z,101037.41
2022-09-17T06:46:11.751Z,101040.09
2022-09-17T06:48:40.160Z,101041.84
2022-09-17T06:51:11.220Z,101045.34
2022-09-17T06:53:40.235Z,101035.66
2022-09-17T06:56:09.655Z,101040.94
2022-09-17T06:58:38.380Z,101051.53
2022-09-17T07:01:06.758Z,101047.19
2022-09-17T07:03:35.286Z,101044.50
2022-09-17T07:06:04.485Z,101048.84
2022-09-17T07:08:34.807Z,101051.41
2022-09-17T07:11:03.158Z,101050.44
2022-09-17T07:13:31.867Z,101049.50
2022-09-17T07:16:02.006Z,101048.56
2022-09-17T07:18:30.716Z,101055.53
2022-09-17T07:21:04.515Z,101043.97
2022-09-17T07:23:35.570Z,101044.63
2022-09-17T07:26:06.918Z,101041.59
2022-09-17T07:28:35.217Z,101046.59
2022-09-17T07:31:05.667Z,101054.63
2022-09-17T07:33:35.353Z,101067.31
2022-09-17T07:36:15.180Z,101041.19
2022-09-17T07:38:45.112Z,101062.66
2022-09-17T07:41:15.573Z,101061.00
2022-09-17T07:43:44.677Z,101053.94
2022-09-17T07:46:19.289Z,101054.97
2022-09-17T07:48:49.794Z,101061.19
2022-09-17T07:51:21.890Z,101073.59
2022-09-17T07:53:58.183Z,101071.81
2022-09-17T07:56:27.774Z,101062.09
2022-09-17T07:58:56.271Z,101054.13
2022-09-17T08:01:24.781Z,101054.06
2022-09-17T08:04:00.665Z,101061.13
2022-09-17T08:06:29.940Z,101069.13
2022-09-17T08:09:02.470Z,101068.28
2022-09-17T08:11:54.612Z,101048.06
2022-09-17T08:14:20.447Z,101056.88
2022-09-17T08:16:48.788Z,101055.97
2022-09-17T08:19:19.043Z,101059.50
2022-09-17T08:21:47.330Z,101062.13
2022-09-17T08:24:15.555Z,101051.59
2022-09-17T08:26:44.035Z,101054.22
2022-09-17T08:29:12.433Z,101060.38
2022-09-17T08:31:41.448Z,101057.69
2022-09-17T08:34:10.540Z,101053.13
2022-09-17T08:36:38.865Z,101042.44
2022-09-17T08:39:07.653Z,101047.47
2022-09-17T08:41:49.935Z,101046.28
2022-09-17T08:44:36.587Z,101040.72
2022-09-17T08:47:15.360Z,101043.16
2022-09-17T08:49:54.447Z,101043.81
2022-09-17T08:52:42.822Z,101038.25
2022-09-17T08:55:26.990Z,101034.63
2022-09-17T08:58:27.495Z,101031.03
2022-09-17T09:01:11.774Z,101037.38
2022-09-17T09:03:59.676Z,101039.28
2022-09-17T09:06:35.376Z,101042.88
2022-09-17T09:09:14.308Z,101032.25
2022-09-17T09:11:48.226Z,101031.34
2022-09-17T09:14:20.395Z,101048.19
2022-09-17T09:16:52.618Z,101050.03
2022-09-17T09:19:28.344Z,101050.06
2022-09-17T09:22:05.962Z,101045.63
2022-09-17T09:24:42.973Z,101045.56
2022-09-17T09:27:22.390Z,101039.38
2022-09-17T09:29:57.973Z,101046.41
2022-09-17T09:32:29.256Z,101042.00
2022-09-17T09:35:33.869Z,101034.00
2022-09-17T09:38:09.269Z,101040.16
2022-09-17T09:40:58.184Z,101039.25
2022-09-17T09:44:04.035Z,101041.81
2022-09-17T09:47:05.372Z,101048.75
2022-09-17T09:49:56.779Z,101042.44
2022-09-17T09:53:03.055Z,101062.13
2022-09-17T09:55:44.473Z,101036.53
2022-09-17T09:58:21.881Z,101040.97
2022-09-17T10:00:51.420Z,101045.41
2022-09-17T10:03:22.747Z,101055.13
2022-09-17T10:05:59.020Z,101049.91
2022-09-17T10:08:29.001Z,101056.16
2022-09-17T10:11:16.836Z,101057.03
2022-09-17T10:13:46.118Z,101043.81
2022-09-17T10:16:26.807Z,101046.41
2022-09-17T10:19:04.246Z,101048.13
2022-09-17T10:21:34.986Z,101044.50
2022-09-17T10:24:14.272Z,101039.94
2022-09-17T10:26:43.971Z,101050.56
2022-09-17T10:29:16.557Z,101058.72
2022-09-17T10:31:52.835Z,101068.69
2022-09-17T10:34:24.424Z,101060.13
2022-09-17T10:36:53.625Z,101054.03
2022-09-17T10:39:34.272Z,101056.75
2022-09-17T10:42:11.710Z,101056.72
2022-09-17T10:44:51.899Z,101048.63
2022-09-17T10:47:25.761Z,101053.81
2022-09-17T10:50:05.445Z,101044.78
2022-09-17T10:52:37.931Z,101045.53
2022-09-17T10:55:15.509Z,101051.59
2022-09-17T10:58:08.254Z,101050.66
2022-09-17T11:00:45.221Z,101050.66
2022-09-17T11:03:45.054Z,101051.47
2022-09-17T11:06:51.264Z,101041.66
2022-09-17T11:09:34.436Z,101042.47
2022-09-17T11:12:32.900Z,101029.97
2022-09-17T11:15:20.698Z,101040.53
2022-09-17T11:17:58.449Z,101046.69
2022-09-17T11:20:37.413Z,101041.25
2022-09-17T11:23:47.227Z,101051.81
2022-09-17T11:26:36.295Z,101048.25
2022-09-17T11:29:29.609Z,101046.69
2022-09-17T11:32:21.668Z,101056.41
2022-09-17T11:35:05.573Z,101042.16
2022-09-17T11:37:43.603Z,101057.19
2022-09-17T11:40:36.932Z,101050.81
2022-09-17T11:43:27.966Z,101061.41
2022-09-17T11:46:15.965Z,101056.28
2022-09-17T11:48:50.846Z,101062.75
2022-09-17T11:51:27.082Z,101070.06
2022-09-17T11:54:37.596Z,101072.75
2022-09-17T11:57:27.584Z,101063.94
2022-09-17T12:00:16.325Z,101055.00
2022-09-17T12:03:14.790Z,101061.03
2022-09-17T12:05:54.792Z,101049.41
2022-09-17T12:08:34.081Z,101065.22
2022-09-17T12:11:14.773Z,101067.81
2022-09-17T12:13:48.671Z,101051.69
2022-09-17T12:16:20.138Z,101058.78
2022-09-17T12:19:02.720Z,101057.84
2022-09-17T12:21:37.767Z,101056.09
2022-09-17T12:24:23.554Z,101078.25
2022-09-17T12:30:26.559Z,101061.78
2022-09-17T12:33:10.816Z,101070.69
2022-09-17T12:36:05.245Z,101074.44
2022-09-17T12:38:52.418Z,101059.59
2022-09-17T12:41:27.363Z,101058.84
2022-09-17T12:44:36.466Z,101059.84
2022-09-17T12:47:25.106Z,101067.06
2022-09-17T12:50:09.709Z,101061.75
2022-09-17T12:52:54.013Z,101062.50
2022-09-17T12:55:58.005Z,101074.66
2022-09-17T12:58:46.392Z,101061.25
2022-09-17T13:01:34.568Z,101047.81
2022-09-17T13:04:43.538Z,101064.53
2022-09-17T13:07:53.457Z,101062.75
2022-09-17T13:10:44.732Z,101060.06
2022-09-17T13:14:04.076Z,101062.63
2022-09-17T13:16:40.030Z,101069.63
2022-09-17T13:19:57.857Z,101049.22
2022-09-17T13:22:36.385Z,101068.72
2022-09-17T13:25:08.506Z,101063.41
2022-09-17T13:27:38.216Z,101066.91
2022-09-17T13:30:11.898Z,101066.13
2022-09-17T13:32:40.367Z,101066.13
2022-09-17T13:35:11.643Z,101068.78
2022-09-17T13:37:52.680Z,101074.03
2022-09-17T13:40:42.642Z,101079.44
2022-09-17T13:43:18.071Z,101079.44
2022-09-17T13:46:11.021Z,101070.63
2022-09-17T13:48:49.488Z,101067.06
2022-09-17T13:51:30.075Z,101073.34
2022-09-17T13:54:01.528Z,101082.41
2022-09-17T13:56:34.798Z,101084.22
2022-09-17T13:59:23.323Z,101078.03
2022-09-17T14:02:02.295Z,101087.72
2022-09-17T14:04:40.571Z,101078.06
2022-09-17T14:07:32.139Z,101102.88
2022-09-17T14:10:02.758Z,101098.53
2022-09-17T14:12:44.683Z,101086.22
2022-09-17T14:15:43.358Z,101075.66
2022-09-17T14:18:35.553Z,101085.41
2022-09-17T14:21:09.879Z,101089.81
2022-09-17T14:23:59.464Z,101088.06
2022-09-17T14:26:51.110Z,101096.94
2022-09-17T14:29:30.572Z,101093.38
2022-09-17T14:31:59.428Z,101085.41
2022-09-17T14:34:28.730Z,101085.34
2022-09-17T14:36:57.073Z,101097.75
2022-09-17T14:39:34.234Z,101082.75
2022-09-17T14:42:05.658Z,101087.16
2022-09-17T14:44:35.600Z,101088.94
2022-09-17T14:47:14.467Z,101090.66
2022-09-17T14:49:43.261Z,101087.16
2022-09-17T14:52:24.851Z,101088.03
2022-09-17T14:55:31.211Z,101091.53
2022-09-17T14:58:04.902Z,101091.53
2022-09-17T15:00:35.838Z,101098.59
2022-09-17T15:03:06.118Z,101088.03
2022-09-17T15:05:42.643Z,101099.59
2022-09-17T15:08:11.289Z,101096.97
2022-09-17T15:10:49.242Z,101095.19
2022-09-17T15:13:23.826Z,101110.19
2022-09-17T15:15:59.714Z,101106.81
2022-09-17T15:18:38.611Z,101092.81
2022-09-17T15:21:32.333Z,101093.78
2022-09-17T15:24:14.182Z,101102.75
2022-09-17T15:26:46.730Z,101106.38
2022-09-17T15:29:15.718Z,101113.47
2022-09-17T15:31:44.217Z,101104.72
2022-09-17T15:34:12.719Z,101105.56
2022-09-17T15:36:41.283Z,101108.22
2022-09-17T15:39:29.509Z,101097.63
2022-09-17T15:41:58.567Z,101102.91
2022-09-17T15:44:31.662Z,101094.94
2022-09-17T15:47:39.149Z,101111.75
2022-09-17T15:50:14.307Z,101114.41
2022-09-17T15:52:43.410Z,101136.50
2022-09-17T15:55:51.257Z,101110.03
2022-09-17T15:58:23.950Z,101113.59
2022-09-17T16:01:14.770Z,101114.50
2022-09-17T16:03:45.948Z,101116.31
2022-09-17T16:06:20.748Z,101110.19
2022-09-17T16:08:50.657Z,101114.63
2022-09-17T16:11:27.140Z,101127.00
2022-09-17T16:13:57.248Z,101130.59
2022-09-17T16:16:28.655Z,101141.19
2022-09-17T16:18:57.267Z,101136.81
2022-09-17T16:21:26.002Z,101129.78
2022-09-17T16:23:54.492Z,101132.44
2022-09-17T16:26:28.126Z,101128.06
2022-09-17T16:29:10.615Z,101133.31
2022-09-17T16:31:38.940Z,101127.16
2022-09-17T16:34:08.657Z,101137.75
2022-09-17T16:36:37.085Z,101142.13
2022-09-17T16:39:05.369Z,101153.63
2022-09-17T16:41:33.905Z,101176.56
2022-09-17T16:44:02.650Z,101191.63
2022-09-17T16:46:31.079Z,101183.72
2022-09-17T16:49:00.770Z,101180.19
2022-09-17T16:51:29.337Z,101175.78
2022-09-17T16:53:57.947Z,101164.25
2022-09-17T16:56:26.913Z,101164.25
2022-09-17T16:58:56.882Z,101176.53
2022-09-17T17:01:27.487Z,101186.16
2022-09-17T17:03:59.610Z,101177.34
2022-09-17T17:06:27.997Z,101185.22
2022-09-17T17:08:58.118Z,101164.91
2022-09-17T17:11:28.043Z,101161.41
2022-09-17T17:13:56.398Z,101151.69
2022-09-17T17:16:25.911Z,101151.69
2022-09-17T17:18:55.682Z,101141.13
2022-09-17T17:21:24.302Z,101149.06
2022-09-17T17:23:52.809Z,101151.69
2022-09-17T17:26:21.689Z,101149.03
2022-09-17T17:28:50.128Z,101150.81
2022-09-17T17:31:18.938Z,101146.41
2022-09-17T17:33:47.794Z,101150.78
2022-09-17T17:36:16.374Z,101155.16
2022-09-17T17:38:44.898Z,101154.25
2022-09-17T17:41:15.066Z,101146.34
2022-09-17T17:43:44.010Z,101155.97
2022-09-17T17:46:12.867Z,101164.75
2022-09-17T17:48:43.750Z,101163.88
2022-09-17T17:51:19.198Z,101171.81
2022-09-17T17:53:47.530Z,101169.16
2022-09-17T17:56:15.861Z,101168.28
2022-09-17T17:58:44.410Z,101177.94
2022-09-17T18:01:35.329Z,101172.63
2022-09-17T18:04:07.880Z,101175.28
2022-09-17T18:06:36.564Z,101174.38
2022-09-17T18:09:06.354Z,101179.66
2022-09-17T18:11:34.992Z,101184.06
2022-09-17T18:14:03.302Z,101174.38
2022-09-17T18:16:31.933Z,101187.59
2022-09-17T18:19:00.403Z,101183.16
2022-09-17T18:21:28.953Z,101182.31
2022-09-17T18:23:57.624Z,101189.34
2022-09-17T18:26:29.233Z,101191.13
2022-09-17T18:28:57.636Z,101195.56
2022-09-17T18:31:29.462Z,101190.28
2022-09-17T18:34:02.200Z,101186.78
2022-09-17T18:36:35.696Z,101196.47
2022-09-17T18:41:57.650Z,101200.03
2022-09-17T18:44:26.384Z,101207.06
2022-09-17T18:46:55.010Z,101207.13
2022-09-17T18:49:23.492Z,101215.91
2022-09-17T18:51:52.822Z,101217.69
2022-09-17T18:54:21.237Z,101210.63
2022-09-17T18:56:49.493Z,101217.69
2022-09-17T18:59:17.768Z,101214.16
2022-09-17T19:01:46.143Z,101213.25
2022-09-17T19:04:14.653Z,101214.16
2022-09-17T19:06:43.004Z,101211.50
2022-09-17T19:09:11.944Z,101203.59
2022-09-17T19:11:40.360Z,101211.50
2022-09-17T19:14:10.472Z,101215.91
2022-09-17T19:16:38.867Z,101209.78
2022-09-17T19:19:07.627Z,101218.59
2022-09-17T19:21:36.494Z,101214.22
2022-09-17T19:24:04.992Z,101215.97
2022-09-17T19:26:33.275Z,101214.19
2022-09-17T19:29:02.308Z,101232.69
2022-09-17T19:31:32.921Z,101245.00
2022-09-17T19:34:01.402Z,101238.84
2022-09-17T19:36:29.875Z,101228.31
2022-09-17T19:38:58.880Z,101228.28
2022-09-17T19:41:27.404Z,101222.97
2022-09-17T19:43:56.846Z,101226.47
2022-09-17T19:46:28.800Z,101222.09
2022-09-17T19:48:58.906Z,101222.06
2022-09-17T19:51:29.674Z,101215.03
2022-09-17T19:53:57.974Z,101219.38
2022-09-17T19:56:27.865Z,101223.78
2022-09-17T19:59:15.102Z,101223.78
2022-09-17T20:01:48.567Z,101214.09
2022-09-17T20:04:20.645Z,101215.88
2022-09-17T20:06:48.915Z,101215.88
2022-09-17T20:09:17.484Z,101226.41
2022-09-17T20:11:45.982Z,101214.94
2022-09-17T20:14:14.898Z,101218.50
2022-09-17T20:16:45.013Z,101222.03
2022-09-17T20:19:17.186Z,101220.25
2022-09-17T20:21:46.535Z,101231.72
2022-09-17T20:24:15.971Z,101228.22
2022-09-17T20:26:44.233Z,101237.00
2022-09-17T20:29:12.651Z,101224.75
2022-09-17T20:31:40.978Z,101230.00
2022-09-17T20:34:12.626Z,101226.47
2022-09-17T20:36:40.961Z,101225.59
2022-09-17T20:39:14.205Z,101224.72
2022-09-17T20:41:44.943Z,101235.25
2022-09-17T20:44:13.321Z,101237.00
2022-09-17T20:46:42.736Z,101237.91
2022-09-17T20:49:11.079Z,101236.16
2022-09-17T20:51:39.557Z,101235.28
2022-09-17T20:54:09.980Z,101228.25
2022-09-17T20:56:39.390Z,101229.13
2022-09-17T20:59:17.878Z,101225.56
2022-09-17T21:01:49.597Z,101227.31
2022-09-17T21:04:20.666Z,101231.66
2022-09-17T21:06:52.852Z,101229.00
2022-09-17T21:09:21.241Z,101233.38
2022-09-17T21:11:49.937Z,101230.75
2022-09-17T21:14:20.690Z,101238.66
2022-09-17T21:16:49.205Z,101236.88
2022-09-17T21:19:20.208Z,101242.97
2022-09-17T21:21:51.653Z,101239.47
2022-09-17T21:24:20.521Z,101232.44
2022-09-17T21:26:51.379Z,101235.03
2022-09-17T21:29:20.039Z,101240.28
2022-09-17T21:31:48.427Z,101239.38
2022-09-17T21:34:19.393Z,101244.63
2022-09-17T21:36:49.149Z,101253.47
2022-09-17T21:39:18.476Z,101257.84
2022-09-17T21:41:48.148Z,101250.84
2022-09-17T21:44:16.483Z,101255.25
2022-09-17T21:46:45.217Z,101262.34
2022-09-17T21:49:13.821Z,101253.53
2022-09-17T21:51:43.061Z,101253.53
2022-09-17T21:54:13.641Z,101248.25
2022-09-17T21:56:41.973Z,101242.09
2022-09-17T21:59:13.334Z,101242.09
2022-09-17T22:01:46.256Z,101254.41
2022-09-17T22:04:17.641Z,101238.56
2022-09-17T22:06:48.082Z,101236.81
2022-09-17T22:09:21.338Z,101235.00
2022-09-17T22:11:50.856Z,101236.78
2022-09-17T22:14:21.896Z,101235.88
2022-09-17T22:16:54.666Z,101226.19
2022-09-17T22:19:24.295Z,101234.97
2022-09-17T22:21:54.581Z,101231.44
2022-09-17T22:24:24.126Z,101231.41
2022-09-17T22:26:57.721Z,101235.78
2022-09-17T22:29:28.598Z,101234.88
2022-09-17T22:31:57.349Z,101234.00
2022-09-17T22:34:26.581Z,101235.72
2022-09-17T22:36:54.902Z,101247.09
2022-09-17T22:39:23.200Z,101243.56
2022-09-17T22:41:51.660Z,101240.03
2022-09-17T22:44:20.164Z,101226.84
2022-09-17T22:46:50.947Z,101227.75
2022-09-17T22:49:19.959Z,101241.81
2022-09-17T22:51:48.492Z,101225.09
2022-09-17T22:54:18.816Z,101228.66
2022-09-17T22:56:48.333Z,101223.41
2022-09-17T22:59:18.389Z,101229.56
2022-09-17T23:01:47.065Z,101220.81
2022-09-17T23:04:15.541Z,101226.06
2022-09-17T23:06:44.131Z,101226.97
2022-09-17T23:09:13.839Z,101229.59
2022-09-17T23:11:43.145Z,101232.25
2022-09-17T23:14:12.883Z,101227.00
2022-09-17T23:16:48.147Z,101223.50
2022-09-17T23:19:18.562Z,101223.53
2022-09-17T23:21:47.180Z,101221.78
2022-09-17T23:24:19.335Z,101227.03
2022-09-17T23:26:48.571Z,101214.75
2022-09-17T23:29:19.520Z,101216.47
2022-09-17T23:31:48.125Z,101218.22
2022-09-17T23:34:19.458Z,101214.72
2022-09-17T23:36:47.879Z,101210.31
2022-09-17T23:39:18.346Z,101213.84
2022-09-17T23:41:48.013Z,101219.09
2022-09-17T23:44:17.108Z,101224.41
2022-09-17T23:46:47.282Z,101227.03
2022-09-17T23:49:15.782Z,101218.28
2022-09-17T23:51:44.754Z,101228.81
2022-09-17T23:54:13.158Z,101211.25
2022-09-17T23:56:43.543Z,101210.38
2022-09-17T23:59:12.221Z,101200.72
